sensor_id;sensor_type;location;lat;lon;timestamp;P1;durP1;ratioP1;P2;durP2;ratioP2
26530;SDS011;14201;43.188;24.160;2022-07-05T03:31:42;10.18;;;6.70;;
26530;SDS011;14201;43.188;24.160;2022-07-05T03:34:08;13.55;;;6.38;;
26530;SDS011;14201;43.188;24.160;2022-07-05T03:36:34;9.82;;;6.30;;
26530;SDS011;14201;43.188;24.160;2022-07-05T03:38:59;10.02;;;6.00;;
26530;SDS011;14201;43.188;24.160;2022-07-05T03:41:25;11.95;;;6.03;;
26530;SDS011;14201;43.188;24.160;2022-07-05T03:43:51;10.20;;;6.30;;
26530;SDS011;14201;43.188;24.160;2022-07-05T03:46:16;9.63;;;5.90;;
26530;SDS011;14201;43.188;24.160;2022-07-05T03:48:42;9.48;;;6.03;;
26530;SDS011;14201;43.188;24.160;2022-07-05T03:51:07;9.27;;;6.07;;
26530;SDS011;14201;43.188;24.160;2022-07-05T08:06:05;8.65;;;3.05;;
26530;SDS011;14201;43.188;24.160;2022-07-05T08:08:33;18.55;;;5.72;;
26530;SDS011;14201;43.188;24.160;2022-07-05T08:10:59;9.63;;;3.40;;
26530;SDS011;14201;43.188;24.160;2022-07-05T08:13:25;6.82;;;3.35;;
26530;SDS011;14201;43.188;24.160;2022-07-05T08:45:38;8.57;;;4.65;;
26530;SDS011;14201;43.188;24.160;2022-07-05T08:48:05;12.18;;;4.38;;
26530;SDS011;14201;43.188;24.160;2022-07-05T08:50:33;10.27;;;4.82;;
26530;SDS011;14201;43.188;24.160;2022-07-05T08:53:00;15.35;;;4.80;;
26530;SDS011;14201;43.188;24.160;2022-07-05T08:55:26;14.40;;;5.50;;
26530;SDS011;14201;43.188;24.160;2022-07-05T08:57:52;9.82;;;4.72;;
26530;SDS011;14201;43.188;24.160;2022-07-05T09:00:17;6.05;;;4.47;;
26530;SDS011;14201;43.188;24.160;2022-07-05T09:02:43;7.05;;;4.25;;
26530;SDS011;14201;43.188;24.160;2022-07-05T10:47:09;10.52;;;3.72;;
26530;SDS011;14201;43.188;24.160;2022-07-05T10:49:36;8.18;;;3.55;;
26530;SDS011;14201;43.188;24.160;2022-07-05T10:52:03;5.78;;;3.60;;
26530;SDS011;14201;43.188;24.160;2022-07-05T10:54:29;9.00;;;3.70;;
26530;SDS011;14201;43.188;24.160;2022-07-05T10:57:29;6.20;;;3.70;;
26530;SDS011;14201;43.188;24.160;2022-07-05T11:00:04;11.43;;;3.80;;
26530;SDS011;14201;43.188;24.160;2022-07-05T11:02:31;9.30;;;3.70;;
26530;SDS011;14201;43.188;24.160;2022-07-05T11:04:57;7.82;;;3.78;;
26530;SDS011;14201;43.188;24.160;2022-07-05T11:10:30;9.23;;;3.97;;
26530;SDS011;14201;43.188;24.160;2022-07-05T11:17:48;13.27;;;3.88;;
26530;SDS011;14201;43.188;24.160;2022-07-05T11:20:25;12.80;;;3.63;;
26530;SDS011;14201;43.188;24.160;2022-07-05T11:23:06;6.07;;;3.70;;
26530;SDS011;14201;43.188;24.160;2022-07-05T11:25:38;6.47;;;3.90;;
26530;SDS011;14201;43.188;24.160;2022-07-05T11:28:12;8.45;;;4.00;;
26530;SDS011;14201;43.188;24.160;2022-07-05T11:30:47;10.00;;;4.20;;
26530;SDS011;14201;43.188;24.160;2022-07-05T11:33:37;10.65;;;3.80;;
26530;SDS011;14201;43.188;24.160;2022-07-05T11:36:06;7.18;;;3.70;;
26530;SDS011;14201;43.188;24.160;2022-07-05T11:41:34;11.40;;;3.50;;
26530;SDS011;14201;43.188;24.160;2022-07-05T11:44:03;10.00;;;4.07;;
26530;SDS011;14201;43.188;24.160;2022-07-05T11:46:31;9.48;;;4.15;;
26530;SDS011;14201;43.188;24.160;2022-07-05T11:48:59;5.10;;;3.67;;
26530;SDS011;14201;43.188;24.160;2022-07-05T11:51:26;10.85;;;3.80;;
26530;SDS011;14201;43.188;24.160;2022-07-05T11:53:52;7.40;;;3.58;;
26530;SDS011;14201;43.188;24.160;2022-07-05T12:16:14;6.10;;;3.97;;
26530;SDS011;14201;43.188;24.160;2022-07-05T12:18:49;6.88;;;3.65;;
26530;SDS011;14201;43.188;24.160;2022-07-05T12:21:16;6.57;;;4.13;;
26530;SDS011;14201;43.188;24.160;2022-07-05T12:23:46;7.97;;;4.03;;
26530;SDS011;14201;43.188;24.160;2022-07-05T12:26:13;7.20;;;4.22;;
26530;SDS011;14201;43.188;24.160;2022-07-05T12:28:40;9.82;;;3.80;;
26530;SDS011;14201;43.188;24.160;2022-07-05T12:31:20;7.57;;;3.72;;
26530;SDS011;14201;43.188;24.160;2022-07-05T12:33:51;6.30;;;3.55;;
26530;SDS011;14201;43.188;24.160;2022-07-05T12:36:17;7.53;;;3.80;;
26530;SDS011;14201;43.188;24.160;2022-07-05T12:38:45;4.05;;;3.58;;
26530;SDS011;14201;43.188;24.160;2022-07-05T12:41:11;8.52;;;4.15;;
26530;SDS011;14201;43.188;24.160;2022-07-05T12:43:52;13.18;;;4.05;;
26530;SDS011;14201;43.188;24.160;2022-07-05T12:46:19;6.53;;;3.47;;
26530;SDS011;14201;43.188;24.160;2022-07-05T12:48:51;5.95;;;3.97;;
26530;SDS011;14201;43.188;24.160;2022-07-05T12:51:30;6.72;;;3.90;;
26530;SDS011;14201;43.188;24.160;2022-07-05T12:53:58;7.93;;;4.18;;
26530;SDS011;14201;43.188;24.160;2022-07-05T12:56:46;6.93;;;3.63;;
26530;SDS011;14201;43.188;24.160;2022-07-05T12:59:34;14.70;;;4.75;;
26530;SDS011;14201;43.188;24.160;2022-07-05T13:02:00;8.52;;;4.03;;
26530;SDS011;14201;43.188;24.160;2022-07-05T13:04:26;9.90;;;4.38;;
26530;SDS011;14201;43.188;24.160;2022-07-05T13:06:59;9.85;;;3.70;;
26530;SDS011;14201;43.188;24.160;2022-07-05T13:17:13;7.07;;;4.13;;
26530;SDS011;14201;43.188;24.160;2022-07-05T13:19:40;8.27;;;4.10;;
26530;SDS011;14201;43.188;24.160;2022-07-05T13:22:07;6.85;;;4.28;;
26530;SDS011;14201;43.188;24.160;2022-07-05T13:24:34;11.02;;;4.57;;
26530;SDS011;14201;43.188;24.160;2022-07-05T13:27:01;8.77;;;3.80;;
26530;SDS011;14201;43.188;24.160;2022-07-05T13:29:28;7.72;;;4.20;;
26530;SDS011;14201;43.188;24.160;2022-07-05T13:31:54;14.80;;;4.63;;
26530;SDS011;14201;43.188;24.160;2022-07-05T13:34:20;6.60;;;4.10;;
26530;SDS011;14201;43.188;24.160;2022-07-05T13:36:52;9.32;;;4.32;;
26530;SDS011;14201;43.188;24.160;2022-07-05T13:39:22;10.25;;;4.07;;
26530;SDS011;14201;43.188;24.160;2022-07-05T13:41:48;6.80;;;4.40;;
26530;SDS011;14201;43.188;24.160;2022-07-05T13:44:16;8.85;;;4.13;;
26530;SDS011;14201;43.188;24.160;2022-07-05T13:46:42;6.90;;;4.43;;
26530;SDS011;14201;43.188;24.160;2022-07-05T13:49:08;12.35;;;4.45;;
26530;SDS011;14201;43.188;24.160;2022-07-05T13:51:34;9.32;;;4.15;;
26530;SDS011;14201;43.188;24.160;2022-07-05T13:54:00;8.57;;;4.40;;
26530;SDS011;14201;43.188;24.160;2022-07-05T13:56:25;8.85;;;4.28;;
26530;SDS011;14201;43.188;24.160;2022-07-05T13:58:52;6.95;;;4.10;;
26530;SDS011;14201;43.188;24.160;2022-07-05T14:01:18;6.55;;;4.10;;
26530;SDS011;14201;43.188;24.160;2022-07-05T14:03:52;13.40;;;4.10;;
26530;SDS011;14201;43.188;24.160;2022-07-05T14:06:18;7.82;;;3.85;;
26530;SDS011;14201;43.188;24.160;2022-07-05T14:08:45;6.68;;;4.30;;
26530;SDS011;14201;43.188;24.160;2022-07-05T14:11:10;9.25;;;4.18;;
26530;SDS011;14201;43.188;24.160;2022-07-05T14:13:38;6.20;;;4.00;;
26530;SDS011;14201;43.188;24.160;2022-07-05T14:16:04;10.25;;;4.35;;
26530;SDS011;14201;43.188;24.160;2022-07-05T14:18:30;6.82;;;4.53;;
26530;SDS011;14201;43.188;24.160;2022-07-05T14:20:56;9.20;;;4.78;;
26530;SDS011;14201;43.188;24.160;2022-07-05T14:23:22;9.82;;;4.53;;
26530;SDS011;14201;43.188;24.160;2022-07-05T14:25:48;5.65;;;4.40;;
26530;SDS011;14201;43.188;24.160;2022-07-05T14:28:14;8.13;;;4.60;;
26530;SDS011;14201;43.188;24.160;2022-07-05T14:30:40;6.30;;;4.50;;
26530;SDS011;14201;43.188;24.160;2022-07-05T14:33:08;9.80;;;4.55;;
26530;SDS011;14201;43.188;24.160;2022-07-05T14:35:35;14.40;;;4.53;;
26530;SDS011;14201;43.188;24.160;2022-07-05T14:38:02;8.02;;;4.32;;
26530;SDS011;14201;43.188;24.160;2022-07-05T14:40:28;7.43;;;4.45;;
26530;SDS011;14201;43.188;24.160;2022-07-05T14:42:56;8.35;;;4.93;;
26530;SDS011;14201;43.188;24.160;2022-07-05T14:45:25;7.10;;;4.95;;
26530;SDS011;14201;43.188;24.160;2022-07-05T14:47:52;9.75;;;5.10;;
26530;SDS011;14201;43.188;24.160;2022-07-05T14:50:18;9.65;;;4.18;;
26530;SDS011;14201;43.188;24.160;2022-07-05T14:52:45;10.18;;;4.50;;
26530;SDS011;14201;43.188;24.160;2022-07-05T14:55:11;9.55;;;4.75;;
26530;SDS011;14201;43.188;24.160;2022-07-05T14:57:38;10.23;;;5.28;;
26530;SDS011;14201;43.188;24.160;2022-07-05T15:00:05;9.50;;;5.03;;
26530;SDS011;14201;43.188;24.160;2022-07-05T15:02:33;9.80;;;4.72;;
26530;SDS011;14201;43.188;24.160;2022-07-05T15:04:59;11.32;;;4.60;;
26530;SDS011;14201;43.188;24.160;2022-07-05T15:07:25;12.52;;;5.50;;
26530;SDS011;14201;43.188;24.160;2022-07-05T15:09:51;9.35;;;4.60;;
26530;SDS011;14201;43.188;24.160;2022-07-05T15:12:17;6.93;;;4.72;;
26530;SDS011;14201;43.188;24.160;2022-07-05T15:14:43;5.82;;;4.65;;
26530;SDS011;14201;43.188;24.160;2022-07-05T15:17:09;9.23;;;4.30;;
26530;SDS011;14201;43.188;24.160;2022-07-05T15:19:35;9.30;;;4.53;;
26530;SDS011;14201;43.188;24.160;2022-07-05T15:22:01;6.38;;;4.75;;
26530;SDS011;14201;43.188;24.160;2022-07-05T15:24:27;7.55;;;4.32;;
26530;SDS011;14201;43.188;24.160;2022-07-05T15:26:52;8.35;;;4.45;;
26530;SDS011;14201;43.188;24.160;2022-07-05T15:29:18;11.40;;;4.90;;
26530;SDS011;14201;43.188;24.160;2022-07-05T15:31:44;6.13;;;4.47;;
26530;SDS011;14201;43.188;24.160;2022-07-05T15:34:10;8.98;;;4.50;;
26530;SDS011;14201;43.188;24.160;2022-07-05T15:36:37;10.75;;;4.35;;
26530;SDS011;14201;43.188;24.160;2022-07-05T15:39:04;6.40;;;4.60;;
26530;SDS011;14201;43.188;24.160;2022-07-05T15:41:31;6.35;;;4.25;;
